sensor_id;sensor_type;location;lat;lon;timestamp;pressure;altitude;pressure_sealevel;temperature;humidity
68197;BME280;55019;49.382;11.358;2022-10-31T00:02:19;97108.91;;;11.38;88.16
68197;BME280;55019;49.382;11.358;2022-10-31T00:04:44;97106.66;;;11.43;88.91
68197;BME280;55019;49.382;11.358;2022-10-31T00:07:10;97100.16;;;11.31;89.66
68197;BME280;55019;49.382;11.358;2022-10-31T00:09:35;97111.78;;;11.27;89.33
68197;BME280;55019;49.382;11.358;2022-10-31T00:12:04;97103.34;;;11.25;90.22
68197;BME280;55019;49.382;11.358;2022-10-31T00:14:29;97108.84;;;11.22;90.21
68197;BME280;55019;49.382;11.358;2022-10-31T00:16:54;97106.91;;;11.24;89.50
68197;BME280;55019;49.382;11.358;2022-10-31T00:19:20;97107.13;;;11.30;89.16
68197;BME280;55019;49.382;11.358;2022-10-31T00:21:45;97105.81;;;11.26;89.22
68197;BME280;55019;49.382;11.358;2022-10-31T00:24:11;97106.78;;;11.25;88.93
68197;BME280;55019;49.382;11.358;2022-10-31T00:26:36;97110.13;;;11.18;89.40
68197;BME280;55019;49.382;11.358;2022-10-31T00:29:01;97106.91;;;11.24;88.24
68197;BME280;55019;49.382;11.358;2022-10-31T00:31:27;97113.06;;;11.23;88.25
68197;BME280;55019;49.382;11.358;2022-10-31T00:33:53;97116.88;;;11.11;88.58
68197;BME280;55019;49.382;11.358;2022-10-31T00:36:19;97110.72;;;11.12;89.30
68197;BME280;55019;49.382;11.358;2022-10-31T00:38:46;97118.44;;;11.04;89.56
68197;BME280;55019;49.382;11.358;2022-10-31T00:41:13;97108.47;;;11.09;89.28
68197;BME280;55019;49.382;11.358;2022-10-31T00:43:39;97110.84;;;11.02;88.86
68197;BME280;55019;49.382;11.358;2022-10-31T00:46:04;97119.09;;;11.06;88.86
68197;BME280;55019;49.382;11.358;2022-10-31T00:48:30;97123.44;;;10.80;89.23
68197;BME280;55019;49.382;11.358;2022-10-31T00:50:55;97123.53;;;10.96;89.00
68197;BME280;55019;49.382;11.358;2022-10-31T00:53:21;97123.06;;;10.92;88.86
68197;BME280;55019;49.382;11.358;2022-10-31T00:55:46;97124.94;;;10.82;89.93
68197;BME280;55019;49.382;11.358;2022-10-31T00:58:12;97122.84;;;10.86;90.21
68197;BME280;55019;49.382;11.358;2022-10-31T01:00:38;97121.66;;;10.98;89.36
68197;BME280;55019;49.382;11.358;2022-10-31T01:03:06;97121.44;;;10.91;89.43
68197;BME280;55019;49.382;11.358;2022-10-31T01:05:31;97125.06;;;10.81;89.86
68197;BME280;55019;49.382;11.358;2022-10-31T01:07:58;97131.25;;;10.88;89.74
68197;BME280;55019;49.382;11.358;2022-10-31T01:10:23;97124.88;;;10.74;89.62
68197;BME280;55019;49.382;11.358;2022-10-31T01:12:49;97121.88;;;10.87;89.47
68197;BME280;55019;49.382;11.358;2022-10-31T01:15:20;97121.53;;;10.82;89.88
68197;BME280;55019;49.382;11.358;2022-10-31T01:17:46;97110.78;;;10.69;89.76
68197;BME280;55019;49.382;11.358;2022-10-31T01:20:13;97123.53;;;10.70;89.56
68197;BME280;55019;49.382;11.358;2022-10-31T01:22:39;97119.50;;;10.68;90.06
68197;BME280;55019;49.382;11.358;2022-10-31T01:25:05;97127.03;;;10.87;88.45
68197;BME280;55019;49.382;11.358;2022-10-31T01:27:31;97136.72;;;10.85;88.22
68197;BME280;55019;49.382;11.358;2022-10-31T01:29:56;97118.81;;;10.66;89.07
68197;BME280;55019;49.382;11.358;2022-10-31T01:32:22;97116.25;;;10.66;89.36
68197;BME280;55019;49.382;11.358;2022-10-31T01:34:47;97124.66;;;10.68;89.58
68197;BME280;55019;49.382;11.358;2022-10-31T01:37:13;97125.44;;;10.68;89.54
68197;BME280;55019;49.382;11.358;2022-10-31T01:39:38;97120.94;;;10.70;89.30
68197;BME280;55019;49.382;11.358;2022-10-31T01:42:04;97121.53;;;10.82;88.33
68197;BME280;55019;49.382;11.358;2022-10-31T01:47:06;97118.66;;;10.67;89.34
68197;BME280;55019;49.382;11.358;2022-10-31T01:49:43;97122.22;;;10.66;88.56
68197;BME280;55019;49.382;11.358;2022-10-31T01:52:22;97119.44;;;10.60;87.90
68197;BME280;55019;49.382;11.358;2022-10-31T01:55:03;97114.94;;;10.62;87.34
68197;BME280;55019;49.382;11.358;2022-10-31T01:57:31;97113.00;;;10.64;87.31
68197;BME280;55019;49.382;11.358;2022-10-31T02:00:02;97114.22;;;10.52;87.89
68197;BME280;55019;49.382;11.358;2022-10-31T02:02:29;97106.16;;;10.55;88.14
68197;BME280;55019;49.382;11.358;2022-10-31T02:04:56;97109.59;;;10.46;88.58
68197;BME280;55019;49.382;11.358;2022-10-31T02:07:45;97105.88;;;10.40;88.38
68197;BME280;55019;49.382;11.358;2022-10-31T02:10:12;97098.91;;;10.41;88.21
68197;BME280;55019;49.382;11.358;2022-10-31T02:12:39;97110.50;;;10.37;88.60
68197;BME280;55019;49.382;11.358;2022-10-31T02:15:06;97105.63;;;10.34;88.47
68197;BME280;55019;49.382;11.358;2022-10-31T02:17:32;97111.47;;;10.36;89.04
68197;BME280;55019;49.382;11.358;2022-10-31T02:20:15;97106.31;;;10.36;89.32
68197;BME280;55019;49.382;11.358;2022-10-31T02:31:43;97105.56;;;10.08;91.33
68197;BME280;55019;49.382;11.358;2022-10-31T02:34:20;97098.59;;;10.01;90.92
68197;BME280;55019;49.382;11.358;2022-10-31T02:39:44;97105.50;;;10.18;89.15
68197;BME280;55019;49.382;11.358;2022-10-31T02:43:09;97095.97;;;10.18;89.51
68197;BME280;55019;49.382;11.358;2022-10-31T02:45:35;97103.88;;;10.17;90.71
68197;BME280;55019;49.382;11.358;2022-10-31T02:48:09;97090.94;;;9.99;90.96
68197;BME280;55019;49.382;11.358;2022-10-31T02:50:39;97098.59;;;10.01;92.29
68197;BME280;55019;49.382;11.358;2022-10-31T02:53:07;97088.25;;;10.01;92.58
68197;BME280;55019;49.382;11.358;2022-10-31T02:58:02;97090.16;;;10.16;91.99
68197;BME280;55019;49.382;11.358;2022-10-31T03:00:37;97086.41;;;10.11;92.01
68197;BME280;55019;49.382;11.358;2022-10-31T03:06:09;97091.09;;;9.98;93.02
68197;BME280;55019;49.382;11.358;2022-10-31T03:09:03;97090.69;;;10.20;91.87
68197;BME280;55019;49.382;11.358;2022-10-31T03:14:34;97087.63;;;9.90;92.27
68197;BME280;55019;49.382;11.358;2022-10-31T03:17:05;97094.34;;;10.00;92.59
68197;BME280;55019;49.382;11.358;2022-10-31T03:19:40;97094.53;;;9.89;92.71
68197;BME280;55019;49.382;11.358;2022-10-31T03:22:21;97092.41;;;9.85;93.09
68197;BME280;55019;49.382;11.358;2022-10-31T03:24:48;97088.22;;;9.84;93.27
68197;BME280;55019;49.382;11.358;2022-10-31T03:27:20;97086.06;;;9.97;92.17
68197;BME280;55019;49.382;11.358;2022-10-31T03:29:49;97089.97;;;9.83;92.00
68197;BME280;55019;49.382;11.358;2022-10-31T03:32:24;97092.00;;;10.06;90.39
68197;BME280;55019;49.382;11.358;2022-10-31T03:34:54;97093.81;;;9.97;90.52
68197;BME280;55019;49.382;11.358;2022-10-31T03:37:22;97088.91;;;10.03;89.92
68197;BME280;55019;49.382;11.358;2022-10-31T03:39:50;97091.75;;;9.83;90.68
68197;BME280;55019;49.382;11.358;2022-10-31T03:42:24;97101.53;;;10.06;90.00
68197;BME280;55019;49.382;11.358;2022-10-31T03:44:56;97089.66;;;9.86;91.27
68197;BME280;55019;49.382;11.358;2022-10-31T03:47:23;97093.13;;;10.04;90.30
68197;BME280;55019;49.382;11.358;2022-10-31T03:49:49;97098.00;;;10.07;89.94
68197;BME280;55019;49.382;11.358;2022-10-31T03:54:54;97103.44;;;10.04;90.17
68197;BME280;55019;49.382;11.358;2022-10-31T04:00:40;97095.28;;;9.82;90.43
68197;BME280;55019;49.382;11.358;2022-10-31T04:03:23;97091.91;;;9.98;89.84
68197;BME280;55019;49.382;11.358;2022-10-31T04:05:53;97086.13;;;9.87;89.83
68197;BME280;55019;49.382;11.358;2022-10-31T04:08:23;97083.31;;;9.63;92.35
68197;BME280;55019;49.382;11.358;2022-10-31T04:10:51;97094.50;;;9.54;93.12
68197;BME280;55019;49.382;11.358;2022-10-31T04:13:22;97087.22;;;9.67;92.28
68197;BME280;55019;49.382;11.358;2022-10-31T04:15:51;97085.09;;;9.80;90.63
68197;BME280;55019;49.382;11.358;2022-10-31T04:18:17;97079.41;;;9.94;89.77
68197;BME280;55019;49.382;11.358;2022-10-31T04:20:42;97084.78;;;9.83;90.21
68197;BME280;55019;49.382;11.358;2022-10-31T04:23:19;97083.19;;;9.82;90.49
68197;BME280;55019;49.382;11.358;2022-10-31T04:25:44;97075.66;;;9.71;90.63
68197;BME280;55019;49.382;11.358;2022-10-31T04:28:10;97079.84;;;9.72;90.51
68197;BME280;55019;49.382;11.358;2022-10-31T04:30:35;97086.56;;;9.65;90.65
68197;BME280;55019;49.382;11.358;2022-10-31T04:33:00;97087.44;;;9.56;91.35
68197;BME280;55019;49.382;11.358;2022-10-31T04:35:26;97079.47;;;9.67;90.96
68197;BME280;55019;49.382;11.358;2022-10-31T04:37:51;97089.22;;;9.73;90.34
68197;BME280;55019;49.382;11.358;2022-10-31T04:40:16;97085.44;;;9.68;89.84
68197;BME280;55019;49.382;11.358;2022-10-31T04:42:42;97084.47;;;9.51;90.31
68197;BME280;55019;49.382;11.358;2022-10-31T04:45:07;97086.56;;;9.65;89.69
68197;BME280;55019;49.382;11.358;2022-10-31T04:47:33;97087.75;;;9.71;89.25
68197;BME280;55019;49.382;11.358;2022-10-31T04:49:59;97089.50;;;9.70;88.94
68197;BME280;55019;49.382;11.358;2022-10-31T04:52:24;97083.31;;;9.63;89.53
68197;BME280;55019;49.382;11.358;2022-10-31T04:54:49;97081.44;;;9.56;89.56
68197;BME280;55019;49.382;11.358;2022-10-31T04:57:15;97083.59;;;9.60;89.43
68197;BME280;55019;49.382;11.358;2022-10-31T04:59:40;97085.84;;;9.46;89.69
68197;BME280;55019;49.382;11.358;2022-10-31T05:02:05;97081.78;;;9.43;90.39
68197;BME280;55019;49.382;11.358;2022-10-31T05:04:31;97089.56;;;9.61;89.45
68197;BME280;55019;49.382;11.358;2022-10-31T05:06:56;97083.88;;;9.57;91.13
68197;BME280;55019;49.382;11.358;2022-10-31T05:09:22;97082.84;;;9.50;91.39
68197;BME280;55019;49.382;11.358;2022-10-31T05:11:47;97078.66;;;9.49;91.30
68197;BME280;55019;49.382;11.358;2022-10-31T05:14:12;97085.09;;;9.36;92.22
68197;BME280;55019;49.382;11.358;2022-10-31T05:16:38;97094.97;;;9.40;92.32
68197;BME280;55019;49.382;11.358;2022-10-31T05:19:03;97078.34;;;9.52;91.33
68197;BME280;55019;49.382;11.358;2022-10-31T05:21:28;97079.16;;;9.53;90.75
68197;BME280;55019;49.382;11.358;2022-10-31T05:23:54;97073.09;;;9.44;90.38
68197;BME280;55019;49.382;11.358;2022-10-31T05:26:19;97082.31;;;9.47;90.92
68197;BME280;55019;49.382;11.358;2022-10-31T05:28:45;97080.09;;;9.52;90.23
68197;BME280;55019;49.382;11.358;2022-10-31T05:31:10;97076.06;;;9.49;90.50
68197;BME280;55019;49.382;11.358;2022-10-31T05:33:35;97075.34;;;9.30;91.18
68197;BME280;55019;49.382;11.358;2022-10-31T05:36:01;97071.25;;;9.37;91.06
68197;BME280;55019;49.382;11.358;2022-10-31T05:38:26;97080.88;;;9.35;91.30
68197;BME280;55019;49.382;11.358;2022-10-31T05:40:54;97075.94;;;9.41;91.79
68197;BME280;55019;49.382;11.358;2022-10-31T05:43:22;97072.41;;;9.25;91.77
68197;BME280;55019;49.382;11.358;2022-10-31T05:45:52;97072.91;;;9.28;90.92
68197;BME280;55019;49.382;11.358;2022-10-31T05:48:17;97080.25;;;9.23;90.87
68197;BME280;55019;49.382;11.358;2022-10-31T05:50:42;97070.66;;;9.16;91.08
68197;BME280;55019;49.382;11.358;2022-10-31T05:53:08;97072.53;;;9.23;90.74
68197;BME280;55019;49.382;11.358;2022-10-31T05:55:33;97071.84;;;9.21;90.85
68197;BME280;55019;49.382;11.358;2022-10-31T05:57:59;97065.38;;;9.08;92.28
68197;BME280;55019;49.382;11.358;2022-10-31T06:00:25;97073.47;;;9.22;92.59
68197;BME280;55019;49.382;11.358;2022-10-31T06:03:01;97067.44;;;9.31;92.76
68197;BME280;55019;49.382;11.358;2022-10-31T06:05:30;97074.00;;;9.26;93.14
68197;BME280;55019;49.382;11.358;2022-10-31T06:07:56;97081.59;;;9.27;92.87
68197;BME280;55019;49.382;11.358;2022-10-31T06:10:22;97084.06;;;9.19;92.42
68197;BME280;55019;49.382;11.358;2022-10-31T06:12:48;97080.84;;;9.44;91.23
68197;BME280;55019;49.382;11.358;2022-10-31T06:15:13;97088.03;;;9.41;90.36
68197;BME280;55019;49.382;11.358;2022-10-31T06:17:39;97085.06;;;9.45;90.37
68197;BME280;55019;49.382;11.358;2022-10-31T06:20:05;97087.84;;;9.52;90.07
68197;BME280;55019;49.382;11.358;2022-10-31T06:22:31;97088.81;;;9.51;89.76
68197;BME280;55019;49.382;11.358;2022-10-31T06:24:56;97082.03;;;9.50;89.48
68197;BME280;55019;49.382;11.358;2022-10-31T06:27:22;97083.44;;;9.44;89.57
68197;BME280;55019;49.382;11.358;2022-10-31T06:29:47;97081.06;;;9.51;89.81
68197;BME280;55019;49.382;11.358;2022-10-31T06:32:13;97095.63;;;9.42;91.26
68197;BME280;55019;49.382;11.358;2022-10-31T06:34:40;97086.69;;;9.46;91.94
68197;BME280;55019;49.382;11.358;2022-10-31T06:37:06;97086.75;;;9.54;91.98
68197;BME280;55019;49.382;11.358;2022-10-31T06:39:35;97101.22;;;9.65;91.66
68197;BME280;55019;49.382;11.358;2022-10-31T06:42:01;97098.59;;;9.74;91.09
68197;BME280;55019;49.382;11.358;2022-10-31T06:44:26;97106.78;;;9.87;90.77
68197;BME280;55019;49.382;11.358;2022-10-31T06:46:51;97099.53;;;9.73;91.02
68197;BME280;55019;49.382;11.358;2022-10-31T06:49:17;97107.19;;;9.65;91.89
68197;BME280;55019;49.382;11.358;2022-10-31T06:51:42;97097.16;;;9.62;92.31
68197;BME280;55019;49.382;11.358;2022-10-31T06:54:08;97098.16;;;9.79;92.33
68197;BME280;55019;49.382;11.358;2022-10-31T06:56:33;97097.69;;;9.83;92.07
68197;BME280;55019;49.382;11.358;2022-10-31T06:58:59;97096.16;;;9.90;91.88
68197;BME280;55019;49.382;11.358;2022-10-31T07:01:24;97103.16;;;10.07;91.79
68197;BME280;55019;49.382;11.358;2022-10-31T07:03:50;97112.34;;;10.09;91.42
68197;BME280;55019;49.382;11.358;2022-10-31T07:06:15;97108.16;;;10.26;91.40
68197;BME280;55019;49.382;11.358;2022-10-31T07:08:41;97107.06;;;10.28;91.18
68197;BME280;55019;49.382;11.358;2022-10-31T07:11:06;97110.38;;;10.21;91.51
68197;BME280;55019;49.382;11.358;2022-10-31T07:13:32;97109.00;;;10.26;91.91
68197;BME280;55019;49.382;11.358;2022-10-31T07:16:03;97109.84;;;10.35;91.74
68197;BME280;55019;49.382;11.358;2022-10-31T07:18:29;97104.22;;;10.57;90.89
68197;BME280;55019;49.382;11.358;2022-10-31T07:20:55;97107.13;;;10.54;91.08
68197;BME280;55019;49.382;11.358;2022-10-31T07:23:21;97109.28;;;10.66;91.06
68197;BME280;55019;49.382;11.358;2022-10-31T07:25:46;97103.38;;;10.74;90.76
68197;BME280;55019;49.382;11.358;2022-10-31T07:28:11;97110.38;;;10.81;90.50
68197;BME280;55019;49.382;11.358;2022-10-31T07:30:37;97105.53;;;11.04;89.85
68197;BME280;55019;49.382;11.358;2022-10-31T07:33:04;97115.63;;;11.23;89.91
68197;BME280;55019;49.382;11.358;2022-10-31T07:35:30;97107.97;;;11.46;88.87
68197;BME280;55019;49.382;11.358;2022-10-31T07:37:56;97105.53;;;11.70;88.24
68197;BME280;55019;49.382;11.358;2022-10-31T07:40:22;97102.84;;;11.88;87.84
68197;BME280;55019;49.382;11.358;2022-10-31T07:42:50;97103.06;;;12.26;87.54
68197;BME280;55019;49.382;11.358;2022-10-31T07:45:18;97103.22;;;12.73;85.66
68197;BME280;55019;49.382;11.358;2022-10-31T07:47:48;97102.78;;;13.39;82.37
68197;BME280;55019;49.382;11.358;2022-10-31T07:50:19;97097.44;;;14.02;79.85
68197;BME280;55019;49.382;11.358;2022-10-31T07:52:44;97107.22;;;14.89;76.32
68197;BME280;55019;49.382;11.358;2022-10-31T07:55:10;97097.41;;;16.07;72.18
68197;BME280;55019;49.382;11.358;2022-10-31T07:57:36;97097.34;;;17.33;66.91
68197;BME280;55019;49.382;11.358;2022-10-31T08:00:08;97084.31;;;17.79;63.96
68197;BME280;55019;49.382;11.358;2022-10-31T08:02:34;97078.69;;;19.39;59.41
68197;BME280;55019;49.382;11.358;2022-10-31T08:05:00;97077.84;;;20.70;55.41
68197;BME280;55019;49.382;11.358;2022-10-31T08:07:27;97082.59;;;21.71;52.00
68197;BME280;55019;49.382;11.358;2022-10-31T08:09:54;97087.41;;;22.92;48.85
68197;BME280;55019;49.382;11.358;2022-10-31T08:12:19;97082.97;;;24.12;46.17
68197;BME280;55019;49.382;11.358;2022-10-31T08:14:45;97064.25;;;25.35;43.67
68197;BME280;55019;49.382;11.358;2022-10-31T08:17:11;97068.50;;;26.22;42.03
68197;BME280;55019;49.382;11.358;2022-10-31T08:19:36;97066.22;;;26.83;39.70
68197;BME280;55019;49.382;11.358;2022-10-31T08:22:02;97066.81;;;27.26;38.27
68197;BME280;55019;49.382;11.358;2022-10-31T08:24:27;97059.97;;;27.72;37.49
68197;BME280;55019;49.382;11.358;2022-10-31T08:26:53;97068.66;;;27.21;39.35
68197;BME280;55019;49.382;11.358;2022-10-31T08:29:18;97060.22;;;28.56;36.48
68197;BME280;55019;49.382;11.358;2022-10-31T08:31:43;97064.28;;;28.94;36.17
68197;BME280;55019;49.382;11.358;2022-10-31T08:34:09;97062.94;;;29.26;35.71
68197;BME280;55019;49.382;11.358;2022-10-31T08:36:34;97059.47;;;29.51;34.92
68197;BME280;55019;49.382;11.358;2022-10-31T08:39:00;97064.00;;;29.05;35.74
68197;BME280;55019;49.382;11.358;2022-10-31T08:41:26;97057.88;;;29.35;35.30
68197;BME280;55019;49.382;11.358;2022-10-31T08:43:51;97055.34;;;31.18;32.72
68197;BME280;55019;49.382;11.358;2022-10-31T08:46:17;97055.03;;;30.04;35.01
68197;BME280;55019;49.382;11.358;2022-10-31T08:48:42;97051.25;;;30.97;32.64
68197;BME280;55019;49.382;11.358;2022-10-31T08:51:08;97057.84;;;29.50;36.36
68197;BME280;55019;49.382;11.358;2022-10-31T08:53:33;97054.31;;;30.37;33.61
68197;BME280;55019;49.382;11.358;2022-10-31T08:55:59;97051.81;;;30.51;34.08
68197;BME280;55019;49.382;11.358;2022-10-31T08:58:27;97046.75;;;29.96;33.92
68197;BME280;55019;49.382;11.358;2022-10-31T09:00:54;97057.13;;;30.94;32.21
68197;BME280;55019;49.382;11.358;2022-10-31T09:03:24;97052.84;;;30.60;33.78
68197;BME280;55019;49.382;11.358;2022-10-31T09:05:50;97048.31;;;31.27;33.03
68197;BME280;55019;49.382;11.358;2022-10-31T09:08:16;97045.31;;;30.72;32.97
68197;BME280;55019;49.382;11.358;2022-10-31T09:10:42;97046.56;;;31.93;30.85
68197;BME280;55019;49.382;11.358;2022-10-31T09:13:13;97048.50;;;31.59;32.79
68197;BME280;55019;49.382;11.358;2022-10-31T09:15:42;97045.47;;;32.73;30.07
68197;BME280;55019;49.382;11.358;2022-10-31T09:18:09;97038.28;;;32.86;29.61
68197;BME280;55019;49.382;11.358;2022-10-31T09:20:36;97036.72;;;32.49;29.51
68197;BME280;55019;49.382;11.358;2022-10-31T09:23:07;97035.66;;;31.61;33.57
68197;BME280;55019;49.382;11.358;2022-10-31T09:25:34;97031.47;;;33.26;30.39
68197;BME280;55019;49.382;11.358;2022-10-31T09:28:01;97036.56;;;32.59;31.17
68197;BME280;55019;49.382;11.358;2022-10-31T09:30:29;97037.56;;;32.81;30.79
68197;BME280;55019;49.382;11.358;2022-10-31T09:33:06;97033.09;;;32.21;32.69
68197;BME280;55019;49.382;11.358;2022-10-31T09:35:32;97038.81;;;33.02;29.88
68197;BME280;55019;49.382;11.358;2022-10-31T09:38:00;97044.56;;;32.95;29.45
68197;BME280;55019;49.382;11.358;2022-10-31T09:40:37;97034.75;;;33.50;27.10
68197;BME280;55019;49.382;11.358;2022-10-31T09:51:47;97035.19;;;32.43;30.49
68197;BME280;55019;49.382;11.358;2022-10-31T09:54:18;97033.53;;;34.50;25.65
68197;BME280;55019;49.382;11.358;2022-10-31T09:56:44;97026.34;;;34.81;26.13
68197;BME280;55019;49.382;11.358;2022-10-31T09:59:16;97025.19;;;35.17;25.95
68197;BME280;55019;49.382;11.358;2022-10-31T10:04:48;97019.69;;;34.21;25.63
68197;BME280;55019;49.382;11.358;2022-10-31T10:07:25;97017.75;;;34.35;25.26
68197;BME280;55019;49.382;11.358;2022-10-31T10:09:55;97015.31;;;33.58;25.96
68197;BME280;55019;49.382;11.358;2022-10-31T10:24:11;97007.31;;;35.82;24.02
68197;BME280;55019;49.382;11.358;2022-10-31T10:26:43;97000.88;;;35.00;26.87
68197;BME280;55019;49.382;11.358;2022-10-31T10:29:35;96999.41;;;35.16;24.67
68197;BME280;55019;49.382;11.358;2022-10-31T10:32:13;96985.44;;;35.06;22.68
68197;BME280;55019;49.382;11.358;2022-10-31T10:34:55;96987.41;;;34.48;24.34
68197;BME280;55019;49.382;11.358;2022-10-31T10:37:29;96992.22;;;35.03;22.85
68197;BME280;55019;49.382;11.358;2022-10-31T10:40:07;96988.75;;;35.03;24.56
68197;BME280;55019;49.382;11.358;2022-10-31T10:42:36;96980.03;;;36.22;23.62
68197;BME280;55019;49.382;11.358;2022-10-31T10:45:23;96979.88;;;36.36;21.90
68197;BME280;55019;49.382;11.358;2022-10-31T10:48:31;96974.97;;;36.12;23.96
68197;BME280;55019;49.382;11.358;2022-10-31T10:51:00;96974.66;;;37.36;21.97
68197;BME280;55019;49.382;11.358;2022-10-31T10:56:46;96965.72;;;36.98;20.50
68197;BME280;55019;49.382;11.358;2022-10-31T10:59:18;96968.50;;;36.64;21.38
68197;BME280;55019;49.382;11.358;2022-10-31T11:01:45;96961.97;;;36.14;22.86
68197;BME280;55019;49.382;11.358;2022-10-31T11:04:32;96964.84;;;36.26;23.31
68197;BME280;55019;49.382;11.358;2022-10-31T11:07:09;96966.94;;;35.74;22.34
68197;BME280;55019;49.382;11.358;2022-10-31T11:09:35;96962.22;;;35.88;21.71
68197;BME280;55019;49.382;11.358;2022-10-31T11:12:29;96959.69;;;34.74;23.93
68197;BME280;55019;49.382;11.358;2022-10-31T11:14:58;96963.22;;;33.91;22.90
68197;BME280;55019;49.382;11.358;2022-10-31T11:17:34;96967.63;;;35.10;21.57
68197;BME280;55019;49.382;11.358;2022-10-31T11:20:03;96950.50;;;34.32;24.29
68197;BME280;55019;49.382;11.358;2022-10-31T11:22:29;96952.31;;;33.47;25.80
68197;BME280;55019;49.382;11.358;2022-10-31T11:24:55;96949.66;;;33.20;23.99
68197;BME280;55019;49.382;11.358;2022-10-31T11:27:22;96943.75;;;31.62;28.20
68197;BME280;55019;49.382;11.358;2022-10-31T11:29:49;96944.81;;;30.62;28.16
68197;BME280;55019;49.382;11.358;2022-10-31T11:32:23;96937.91;;;30.61;28.43
68197;BME280;55019;49.382;11.358;2022-10-31T11:34:58;96939.59;;;31.09;27.88
68197;BME280;55019;49.382;11.358;2022-10-31T11:37:29;96936.22;;;29.93;30.02
68197;BME280;55019;49.382;11.358;2022-10-31T11:39:57;96936.75;;;30.34;27.50
68197;BME280;55019;49.382;11.358;2022-10-31T11:42:46;96927.13;;;30.04;30.48
68197;BME280;55019;49.382;11.358;2022-10-31T11:47:51;96905.13;;;29.16;32.37
68197;BME280;55019;49.382;11.358;2022-10-31T11:50:22;96914.75;;;29.07;31.32
68197;BME280;55019;49.382;11.358;2022-10-31T11:52:48;96917.50;;;28.52;34.06
68197;BME280;55019;49.382;11.358;2022-10-31T11:55:29;96917.97;;;28.24;32.61
68197;BME280;55019;49.382;11.358;2022-10-31T11:57:55;96909.16;;;29.13;30.15
68197;BME280;55019;49.382;11.358;2022-10-31T12:08:09;96905.81;;;28.43;32.15
68197;BME280;55019;49.382;11.358;2022-10-31T12:37:13;96878.16;;;28.44;30.15
68197;BME280;55019;49.382;11.358;2022-10-31T12:57:09;96864.63;;;25.74;33.28
68197;BME280;55019;49.382;11.358;2022-10-31T12:59:43;96840.44;;;25.12;34.93
68197;BME280;55019;49.382;11.358;2022-10-31T13:02:34;96855.97;;;24.66;37.08
68197;BME280;55019;49.382;11.358;2022-10-31T13:52:05;96820.84;;;19.96;49.05
68197;BME280;55019;49.382;11.358;2022-10-31T13:54:36;96804.41;;;19.82;51.30
68197;BME280;55019;49.382;11.358;2022-10-31T14:00:32;96813.81;;;20.92;47.24
68197;BME280;55019;49.382;11.358;2022-10-31T14:03:16;96783.22;;;21.68;45.13
68197;BME280;55019;49.382;11.358;2022-10-31T14:05:54;96786.25;;;23.08;40.87
68197;BME280;55019;49.382;11.358;2022-10-31T14:08:29;96792.13;;;23.70;39.71
68197;BME280;55019;49.382;11.358;2022-10-31T14:10:58;96791.22;;;24.09;39.32
68197;BME280;55019;49.382;11.358;2022-10-31T14:13:38;96792.69;;;24.38;39.56
68197;BME280;55019;49.382;11.358;2022-10-31T14:16:25;96774.72;;;23.69;39.40
68197;BME280;55019;49.382;11.358;2022-10-31T14:19:07;96787.69;;;22.99;41.23
68197;BME280;55019;49.382;11.358;2022-10-31T14:21:42;96786.50;;;22.67;41.51
68197;BME280;55019;49.382;11.358;2022-10-31T14:26:56;96778.22;;;21.37;46.00
68197;BME280;55019;49.382;11.358;2022-10-31T14:29:28;96778.50;;;20.70;47.92
68197;BME280;55019;49.382;11.358;2022-10-31T14:31:58;96782.28;;;20.74;46.38
68197;BME280;55019;49.382;11.358;2022-10-31T14:34:39;96774.28;;;20.34;47.60
68197;BME280;55019;49.382;11.358;2022-10-31T14:37:31;96774.19;;;20.22;49.17
68197;BME280;55019;49.382;11.358;2022-10-31T14:49:38;96765.00;;;19.15;51.24
68197;BME280;55019;49.382;11.358;2022-10-31T14:52:13;96756.19;;;19.03;51.02
68197;BME280;55019;49.382;11.358;2022-10-31T14:54:50;96755.94;;;18.74;52.84
68197;BME280;55019;49.382;11.358;2022-10-31T14:57:28;96750.41;;;18.51;55.43
68197;BME280;55019;49.382;11.358;2022-10-31T15:00:04;96750.88;;;18.35;55.61
68197;BME280;55019;49.382;11.358;2022-10-31T15:05:09;96748.88;;;18.11;55.34
68197;BME280;55019;49.382;11.358;2022-10-31T15:08:02;96726.41;;;17.97;55.69
68197;BME280;55019;49.382;11.358;2022-10-31T15:10:35;96731.63;;;17.97;55.59
68197;BME280;55019;49.382;11.358;2022-10-31T15:13:18;96731.69;;;17.71;56.97
68197;BME280;55019;49.382;11.358;2022-10-31T15:18:58;96727.88;;;17.54;57.86
68197;BME280;55019;49.382;11.358;2022-10-31T15:21:27;96725.28;;;17.42;57.26
68197;BME280;55019;49.382;11.358;2022-10-31T15:23:58;96706.38;;;17.27;57.35
68197;BME280;55019;49.382;11.358;2022-10-31T15:26:34;96706.16;;;17.22;57.59
68197;BME280;55019;49.382;11.358;2022-10-31T15:29:03;96699.72;;;17.05;58.04
68197;BME280;55019;49.382;11.358;2022-10-31T15:34:20;96685.66;;;17.06;58.05
68197;BME280;55019;49.382;11.358;2022-10-31T15:36:52;96697.91;;;16.99;59.30
68197;BME280;55019;49.382;11.358;2022-10-31T15:39:18;96690.28;;;16.91;60.16
68197;BME280;55019;49.382;11.358;2022-10-31T15:41:56;96694.88;;;16.82;59.93
68197;BME280;55019;49.382;11.358;2022-10-31T15:44:32;96709.31;;;16.78;60.02
68197;BME280;55019;49.382;11.358;2022-10-31T15:47:04;96676.59;;;16.63;60.02
68197;BME280;55019;49.382;11.358;2022-10-31T15:49:39;96701.25;;;16.60;60.30
68197;BME280;55019;49.382;11.358;2022-10-31T15:52:37;96693.03;;;16.63;60.47
68197;BME280;55019;49.382;11.358;2022-10-31T15:55:25;96699.81;;;16.51;60.86
68197;BME280;55019;49.382;11.358;2022-10-31T15:57:58;96690.91;;;16.33;61.49
68197;BME280;55019;49.382;11.358;2022-10-31T16:00:31;96709.44;;;16.44;61.53
68197;BME280;55019;49.382;11.358;2022-10-31T16:03:28;96702.19;;;16.40;61.83
68197;BME280;55019;49.382;11.358;2022-10-31T16:05:55;96679.00;;;16.17;61.35
68197;BME280;55019;49.382;11.358;2022-10-31T16:08:35;96675.97;;;16.07;62.78